Denver, CO

3:53 PM MST on March 06, 2015 (GMT -0700)
CODOT South Kipling @ Quincy (39) | Change Station
CLOSE
Current Station
Personal Weather Station
Location: Denver, CO
Elevation: 5618 ft
Nearby Weather Stations

Elev 5618 ft 39.64 °N, 105.08 °W | Updated 38 minutes ago

Clear
Clear
59 °F
Feels Like 59 °F
N
2
Wind Variable Wind from SSE
Gusts 4.0 mph

Today
High -- | Low -- °F
--% Chance of Precip.
Yesterday
High -- | Low -- °F
Precip. -- in
6:26 AM 5:57 PM
Full, 99% visible
Pressure 30.28 in
Visibility 10.0 miles
Clouds Clear
Dew Point 13 °F
Humidity 16%
Rainfall in
Snow Depth Not available.
UV 4 out of 12
Pollen 6.30 out of 12
Air Quality Not available.
Flu Activity Not available.
METAR KAPA 062153Z 18005KT 10SM CLR 09/M08 A3023 RMK AO2 SLP252 T00891083

More Conditions Fewer Conditions

Pressure 30.28 in
Visibility 10.0 miles
Clouds Clear
Dew Point 13 °F
Humidity 16%
Rainfall in
Snow Depth Not available.
UV 4 out of 12
Pollen 6.30 out of 12
Air Quality Not available.
Flu Activity Not available.
METAR KAPA 062153Z 18005KT 10SM CLR 09/M08 A3023 RMK AO2 SLP252 T00891083

More Conditions Fewer Conditions

10-Day Weather Forecast

Almanac

Astronomy

Mar. 06, 2015 Rise Set
Actual Time
Civil Twilight
Nautical Twilight
Astronomical Twilight
Moon
Length of Visible Light
Length of Day
Tomorrow will be .
, % of the Moon is Illuminated

Today's Extremes

State Highs State Lows

Community

WunderPhotos

Upload Photos

1,803,431 photos uploaded!

WunderBlogs® & News

Nearby

Air Quality

  Air Quality AQ Index Pollutant
Not available.

Snow Depth

Station Depth Elevation

Earthquake Activity

City Distance Mag. Time & Date
Minimum magnitude displayed is 2.5.

Coastal Water Temperatures

Place Temperature

Nearby Weather Stations